sensor_id;sensor_type;location;lat;lon;timestamp;temperature;humidity
5621;DHT22;2832;50.864;12.186;2023-06-10T00:01:30;24.30;92.80
5621;DHT22;2832;50.864;12.186;2023-06-10T00:03:58;24.30;92.80
5621;DHT22;2832;50.864;12.186;2023-06-10T00:06:26;24.30;92.80
5621;DHT22;2832;50.864;12.186;2023-06-10T00:08:57;24.30;92.80
5621;DHT22;2832;50.864;12.186;2023-06-10T00:11:27;24.30;92.80
5621;DHT22;2832;50.864;12.186;2023-06-10T00:13:57;24.30;92.80
5621;DHT22;2832;50.864;12.186;2023-06-10T00:16:25;24.30;92.90
5621;DHT22;2832;50.864;12.186;2023-06-10T00:18:54;24.30;93.00
5621;DHT22;2832;50.864;12.186;2023-06-10T00:21:27;24.20;93.00
5621;DHT22;2832;50.864;12.186;2023-06-10T00:23:58;24.20;93.00
5621;DHT22;2832;50.864;12.186;2023-06-10T00:26:29;24.20;93.00
5621;DHT22;2832;50.864;12.186;2023-06-10T00:29:00;24.20;93.10
5621;DHT22;2832;50.864;12.186;2023-06-10T00:31:31;24.20;93.10
5621;DHT22;2832;50.864;12.186;2023-06-10T00:33:59;24.10;93.10
5621;DHT22;2832;50.864;12.186;2023-06-10T00:36:29;24.10;93.20
5621;DHT22;2832;50.864;12.186;2023-06-10T00:38:59;24.10;93.10
5621;DHT22;2832;50.864;12.186;2023-06-10T00:41:27;24.10;93.00
5621;DHT22;2832;50.864;12.186;2023-06-10T00:43:56;24.00;92.90
5621;DHT22;2832;50.864;12.186;2023-06-10T00:46:25;24.00;92.90
5621;DHT22;2832;50.864;12.186;2023-06-10T00:48:56;24.00;92.80
5621;DHT22;2832;50.864;12.186;2023-06-10T00:51:24;24.00;92.80
5621;DHT22;2832;50.864;12.186;2023-06-10T00:53:59;23.90;92.70
5621;DHT22;2832;50.864;12.186;2023-06-10T00:56:28;23.90;92.80
5621;DHT22;2832;50.864;12.186;2023-06-10T00:58:56;23.90;92.80
5621;DHT22;2832;50.864;12.186;2023-06-10T01:01:25;23.90;92.80
5621;DHT22;2832;50.864;12.186;2023-06-10T01:03:53;23.90;92.90
5621;DHT22;2832;50.864;12.186;2023-06-10T01:06:39;23.90;92.90
5621;DHT22;2832;50.864;12.186;2023-06-10T01:09:24;23.90;92.90
5621;DHT22;2832;50.864;12.186;2023-06-10T01:12:05;23.90;92.90
5621;DHT22;2832;50.864;12.186;2023-06-10T01:14:42;23.90;92.90
5621;DHT22;2832;50.864;12.186;2023-06-10T01:17:11;23.90;92.90
5621;DHT22;2832;50.864;12.186;2023-06-10T01:19:43;23.90;92.90
5621;DHT22;2832;50.864;12.186;2023-06-10T01:22:16;23.90;92.90
5621;DHT22;2832;50.864;12.186;2023-06-10T01:24:44;23.90;92.90
5621;DHT22;2832;50.864;12.186;2023-06-10T01:27:16;23.80;92.90
5621;DHT22;2832;50.864;12.186;2023-06-10T01:29:53;23.80;93.00
5621;DHT22;2832;50.864;12.186;2023-06-10T01:32:29;23.80;92.90
5621;DHT22;2832;50.864;12.186;2023-06-10T01:35:02;23.80;92.80
5621;DHT22;2832;50.864;12.186;2023-06-10T01:37:58;23.70;92.80
5621;DHT22;2832;50.864;12.186;2023-06-10T01:40:30;23.80;92.90
5621;DHT22;2832;50.864;12.186;2023-06-10T01:42:58;23.70;92.90
5621;DHT22;2832;50.864;12.186;2023-06-10T01:45:29;23.70;92.90
5621;DHT22;2832;50.864;12.186;2023-06-10T01:47:58;23.60;92.90
5621;DHT22;2832;50.864;12.186;2023-06-10T01:50:26;23.60;92.90
5621;DHT22;2832;50.864;12.186;2023-06-10T01:52:54;23.60;92.90
5621;DHT22;2832;50.864;12.186;2023-06-10T01:55:23;23.50;93.00
5621;DHT22;2832;50.864;12.186;2023-06-10T01:57:51;23.50;93.00
5621;DHT22;2832;50.864;12.186;2023-06-10T02:00:20;23.50;93.00
5621;DHT22;2832;50.864;12.186;2023-06-10T02:02:48;23.50;93.00
5621;DHT22;2832;50.864;12.186;2023-06-10T02:05:16;23.40;93.10
5621;DHT22;2832;50.864;12.186;2023-06-10T02:07:45;23.50;93.00
5621;DHT22;2832;50.864;12.186;2023-06-10T02:10:13;23.50;92.90
5621;DHT22;2832;50.864;12.186;2023-06-10T02:12:43;23.50;92.90
5621;DHT22;2832;50.864;12.186;2023-06-10T02:15:11;23.40;93.00
5621;DHT22;2832;50.864;12.186;2023-06-10T02:17:38;23.40;92.90
5621;DHT22;2832;50.864;12.186;2023-06-10T02:20:07;23.40;93.00
5621;DHT22;2832;50.864;12.186;2023-06-10T02:22:40;23.40;93.00
5621;DHT22;2832;50.864;12.186;2023-06-10T02:25:10;23.40;93.10
5621;DHT22;2832;50.864;12.186;2023-06-10T02:27:42;23.40;93.10
5621;DHT22;2832;50.864;12.186;2023-06-10T02:30:11;23.40;93.00
5621;DHT22;2832;50.864;12.186;2023-06-10T02:32:39;23.40;93.00
5621;DHT22;2832;50.864;12.186;2023-06-10T02:35:08;23.40;93.10
5621;DHT22;2832;50.864;12.186;2023-06-10T02:37:38;23.30;93.10
5621;DHT22;2832;50.864;12.186;2023-06-10T02:40:07;23.30;93.10
5621;DHT22;2832;50.864;12.186;2023-06-10T02:42:36;23.40;93.10
5621;DHT22;2832;50.864;12.186;2023-06-10T02:45:07;23.40;93.00
5621;DHT22;2832;50.864;12.186;2023-06-10T02:47:37;23.40;92.90
5621;DHT22;2832;50.864;12.186;2023-06-10T02:50:06;23.40;92.70
5621;DHT22;2832;50.864;12.186;2023-06-10T02:52:34;23.40;92.80
5621;DHT22;2832;50.864;12.186;2023-06-10T02:55:01;23.30;92.80
5621;DHT22;2832;50.864;12.186;2023-06-10T02:57:30;23.30;92.80
5621;DHT22;2832;50.864;12.186;2023-06-10T02:59:58;23.30;92.90
5621;DHT22;2832;50.864;12.186;2023-06-10T03:02:28;23.30;93.00
5621;DHT22;2832;50.864;12.186;2023-06-10T03:04:56;23.30;93.00
5621;DHT22;2832;50.864;12.186;2023-06-10T03:07:26;23.30;93.00
5621;DHT22;2832;50.864;12.186;2023-06-10T03:09:54;23.30;93.00
5621;DHT22;2832;50.864;12.186;2023-06-10T03:12:22;23.30;93.00
5621;DHT22;2832;50.864;12.186;2023-06-10T03:14:51;23.20;92.90
5621;DHT22;2832;50.864;12.186;2023-06-10T03:17:19;23.20;92.80
5621;DHT22;2832;50.864;12.186;2023-06-10T03:19:48;23.20;93.10
5621;DHT22;2832;50.864;12.186;2023-06-10T03:22:23;23.20;92.70
5621;DHT22;2832;50.864;12.186;2023-06-10T03:24:51;23.20;92.70
5621;DHT22;2832;50.864;12.186;2023-06-10T03:27:19;23.30;92.70
5621;DHT22;2832;50.864;12.186;2023-06-10T03:29:47;23.20;92.70
5621;DHT22;2832;50.864;12.186;2023-06-10T03:32:17;23.20;92.70
5621;DHT22;2832;50.864;12.186;2023-06-10T03:34:53;23.20;92.70
5621;DHT22;2832;50.864;12.186;2023-06-10T03:37:23;23.20;92.70
5621;DHT22;2832;50.864;12.186;2023-06-10T03:39:51;23.20;92.70
5621;DHT22;2832;50.864;12.186;2023-06-10T03:42:19;23.20;92.70
5621;DHT22;2832;50.864;12.186;2023-06-10T03:44:47;23.20;92.70
5621;DHT22;2832;50.864;12.186;2023-06-10T03:47:15;23.10;92.80
5621;DHT22;2832;50.864;12.186;2023-06-10T03:49:43;23.20;92.80
5621;DHT22;2832;50.864;12.186;2023-06-10T03:52:15;23.20;92.80
5621;DHT22;2832;50.864;12.186;2023-06-10T03:54:43;23.10;92.80
5621;DHT22;2832;50.864;12.186;2023-06-10T03:57:13;23.10;92.90
5621;DHT22;2832;50.864;12.186;2023-06-10T03:59:41;23.10;93.00
5621;DHT22;2832;50.864;12.186;2023-06-10T04:02:09;23.20;93.00
5621;DHT22;2832;50.864;12.186;2023-06-10T04:04:38;23.10;93.00
5621;DHT22;2832;50.864;12.186;2023-06-10T04:07:08;23.10;93.20
5621;DHT22;2832;50.864;12.186;2023-06-10T04:09:37;23.10;93.10
5621;DHT22;2832;50.864;12.186;2023-06-10T04:12:06;23.20;93.20
5621;DHT22;2832;50.864;12.186;2023-06-10T04:14:38;23.20;93.20
5621;DHT22;2832;50.864;12.186;2023-06-10T04:17:06;23.20;93.30
5621;DHT22;2832;50.864;12.186;2023-06-10T04:19:34;23.20;93.20
5621;DHT22;2832;50.864;12.186;2023-06-10T04:22:02;23.20;93.20
5621;DHT22;2832;50.864;12.186;2023-06-10T04:24:34;23.30;93.20
5621;DHT22;2832;50.864;12.186;2023-06-10T04:27:04;23.30;93.30
5621;DHT22;2832;50.864;12.186;2023-06-10T04:29:33;23.30;93.20
5621;DHT22;2832;50.864;12.186;2023-06-10T04:32:11;23.30;93.20
5621;DHT22;2832;50.864;12.186;2023-06-10T04:34:48;23.30;93.30
5621;DHT22;2832;50.864;12.186;2023-06-10T04:37:16;23.30;93.30
5621;DHT22;2832;50.864;12.186;2023-06-10T04:39:44;23.30;93.30
5621;DHT22;2832;50.864;12.186;2023-06-10T04:42:13;23.30;93.40
5621;DHT22;2832;50.864;12.186;2023-06-10T04:44:41;23.30;93.40
5621;DHT22;2832;50.864;12.186;2023-06-10T04:47:09;23.30;93.40
5621;DHT22;2832;50.864;12.186;2023-06-10T04:49:37;23.30;93.40
5621;DHT22;2832;50.864;12.186;2023-06-10T04:52:05;23.30;93.50
5621;DHT22;2832;50.864;12.186;2023-06-10T04:54:35;23.30;93.50
5621;DHT22;2832;50.864;12.186;2023-06-10T04:57:05;23.30;93.50
5621;DHT22;2832;50.864;12.186;2023-06-10T04:59:35;23.30;93.40
5621;DHT22;2832;50.864;12.186;2023-06-10T05:02:15;23.30;93.50
5621;DHT22;2832;50.864;12.186;2023-06-10T05:04:50;23.30;93.50
5621;DHT22;2832;50.864;12.186;2023-06-10T05:07:19;23.30;93.50
5621;DHT22;2832;50.864;12.186;2023-06-10T05:09:47;23.30;93.60
5621;DHT22;2832;50.864;12.186;2023-06-10T05:12:15;23.30;93.60
5621;DHT22;2832;50.864;12.186;2023-06-10T05:14:44;23.30;93.60
5621;DHT22;2832;50.864;12.186;2023-06-10T05:17:14;23.30;93.60
5621;DHT22;2832;50.864;12.186;2023-06-10T05:19:42;23.30;93.70
5621;DHT22;2832;50.864;12.186;2023-06-10T05:22:10;23.30;93.70
5621;DHT22;2832;50.864;12.186;2023-06-10T05:24:39;23.30;93.70
5621;DHT22;2832;50.864;12.186;2023-06-10T05:27:08;23.30;93.70
5621;DHT22;2832;50.864;12.186;2023-06-10T05:29:35;23.30;93.80
5621;DHT22;2832;50.864;12.186;2023-06-10T05:32:08;23.30;93.80
5621;DHT22;2832;50.864;12.186;2023-06-10T05:34:36;23.30;93.80
5621;DHT22;2832;50.864;12.186;2023-06-10T05:37:04;23.30;93.80
5621;DHT22;2832;50.864;12.186;2023-06-10T05:39:33;23.30;93.90
5621;DHT22;2832;50.864;12.186;2023-06-10T05:42:04;23.30;93.80
5621;DHT22;2832;50.864;12.186;2023-06-10T05:44:32;23.30;93.90
5621;DHT22;2832;50.864;12.186;2023-06-10T05:47:00;23.30;94.00
5621;DHT22;2832;50.864;12.186;2023-06-10T05:49:30;23.30;94.20
5621;DHT22;2832;50.864;12.186;2023-06-10T05:51:58;23.20;94.70
5621;DHT22;2832;50.864;12.186;2023-06-10T05:54:32;23.10;94.70
5621;DHT22;2832;50.864;12.186;2023-06-10T05:57:00;23.10;94.90
5621;DHT22;2832;50.864;12.186;2023-06-10T05:59:30;23.10;95.10
5621;DHT22;2832;50.864;12.186;2023-06-10T06:01:59;23.20;95.20
5621;DHT22;2832;50.864;12.186;2023-06-10T06:04:27;23.20;95.40
5621;DHT22;2832;50.864;12.186;2023-06-10T06:06:56;23.30;95.50
5621;DHT22;2832;50.864;12.186;2023-06-10T06:09:25;23.30;95.80
5621;DHT22;2832;50.864;12.186;2023-06-10T06:11:53;23.30;95.90
5621;DHT22;2832;50.864;12.186;2023-06-10T06:14:23;23.30;96.50
5621;DHT22;2832;50.864;12.186;2023-06-10T06:16:59;23.20;96.30
5621;DHT22;2832;50.864;12.186;2023-06-10T06:19:27;23.00;96.40
5621;DHT22;2832;50.864;12.186;2023-06-10T06:21:56;23.00;96.60
5621;DHT22;2832;50.864;12.186;2023-06-10T06:24:24;23.10;96.70
5621;DHT22;2832;50.864;12.186;2023-06-10T06:26:52;23.10;97.00
5621;DHT22;2832;50.864;12.186;2023-06-10T06:29:20;23.10;97.00
5621;DHT22;2832;50.864;12.186;2023-06-10T06:31:48;23.20;97.30
5621;DHT22;2832;50.864;12.186;2023-06-10T06:34:16;23.30;97.40
5621;DHT22;2832;50.864;12.186;2023-06-10T06:36:45;23.30;97.70
5621;DHT22;2832;50.864;12.186;2023-06-10T06:39:19;23.30;97.90
5621;DHT22;2832;50.864;12.186;2023-06-10T06:41:51;23.30;98.00
5621;DHT22;2832;50.864;12.186;2023-06-10T06:44:21;23.30;98.10
5621;DHT22;2832;50.864;12.186;2023-06-10T06:46:49;23.30;98.30
5621;DHT22;2832;50.864;12.186;2023-06-10T06:49:17;23.40;98.40
5621;DHT22;2832;50.864;12.186;2023-06-10T06:51:45;23.40;98.40
5621;DHT22;2832;50.864;12.186;2023-06-10T06:54:13;23.40;98.60
5621;DHT22;2832;50.864;12.186;2023-06-10T06:56:46;23.40;98.80
5621;DHT22;2832;50.864;12.186;2023-06-10T06:59:15;23.40;98.70
5621;DHT22;2832;50.864;12.186;2023-06-10T07:01:47;23.40;98.80
5621;DHT22;2832;50.864;12.186;2023-06-10T07:04:22;23.50;98.90
5621;DHT22;2832;50.864;12.186;2023-06-10T07:06:57;23.40;99.00
5621;DHT22;2832;50.864;12.186;2023-06-10T07:09:27;23.50;98.90
5621;DHT22;2832;50.864;12.186;2023-06-10T07:11:58;23.50;99.10
5621;DHT22;2832;50.864;12.186;2023-06-10T07:14:27;23.50;99.10
5621;DHT22;2832;50.864;12.186;2023-06-10T07:17:09;23.60;99.10
5621;DHT22;2832;50.864;12.186;2023-06-10T07:19:37;23.50;99.20
5621;DHT22;2832;50.864;12.186;2023-06-10T07:22:06;23.50;99.30
5621;DHT22;2832;50.864;12.186;2023-06-10T07:24:34;23.40;99.40
5621;DHT22;2832;50.864;12.186;2023-06-10T07:27:07;23.40;99.40
5621;DHT22;2832;50.864;12.186;2023-06-10T07:29:35;23.50;99.50
5621;DHT22;2832;50.864;12.186;2023-06-10T07:32:03;23.50;99.40
5621;DHT22;2832;50.864;12.186;2023-06-10T07:34:35;23.50;99.60
5621;DHT22;2832;50.864;12.186;2023-06-10T07:37:05;23.50;99.70
5621;DHT22;2832;50.864;12.186;2023-06-10T07:39:36;23.50;99.90
5621;DHT22;2832;50.864;12.186;2023-06-10T07:42:07;23.40;99.90
5621;DHT22;2832;50.864;12.186;2023-06-10T07:44:37;23.40;99.90
5621;DHT22;2832;50.864;12.186;2023-06-10T07:47:06;23.50;99.90
5621;DHT22;2832;50.864;12.186;2023-06-10T07:49:35;23.40;99.90
5621;DHT22;2832;50.864;12.186;2023-06-10T07:52:05;23.50;99.90
5621;DHT22;2832;50.864;12.186;2023-06-10T07:54:35;23.40;99.90
5621;DHT22;2832;50.864;12.186;2023-06-10T07:57:03;23.30;99.90
5621;DHT22;2832;50.864;12.186;2023-06-10T07:59:34;23.40;99.90
5621;DHT22;2832;50.864;12.186;2023-06-10T08:02:04;23.30;99.90
5621;DHT22;2832;50.864;12.186;2023-06-10T08:04:40;23.20;99.90
5621;DHT22;2832;50.864;12.186;2023-06-10T08:07:13;23.20;99.90
5621;DHT22;2832;50.864;12.186;2023-06-10T08:10:08;23.10;99.90
5621;DHT22;2832;50.864;12.186;2023-06-10T08:12:37;23.20;99.90
5621;DHT22;2832;50.864;12.186;2023-06-10T08:15:07;23.30;99.90
5621;DHT22;2832;50.864;12.186;2023-06-10T08:17:36;23.40;99.90
5621;DHT22;2832;50.864;12.186;2023-06-10T08:20:05;23.50;99.90
5621;DHT22;2832;50.864;12.186;2023-06-10T08:22:33;23.50;99.90
5621;DHT22;2832;50.864;12.186;2023-06-10T08:25:01;23.40;99.90
5621;DHT22;2832;50.864;12.186;2023-06-10T08:27:28;23.50;99.90
5621;DHT22;2832;50.864;12.186;2023-06-10T08:30:09;23.50;99.90
5621;DHT22;2832;50.864;12.186;2023-06-10T08:32:39;23.60;99.90
5621;DHT22;2832;50.864;12.186;2023-06-10T08:35:08;23.40;99.90
5621;DHT22;2832;50.864;12.186;2023-06-10T08:37:36;23.40;99.90
5621;DHT22;2832;50.864;12.186;2023-06-10T08:40:08;23.50;99.90
5621;DHT22;2832;50.864;12.186;2023-06-10T08:42:39;23.40;99.90
5621;DHT22;2832;50.864;12.186;2023-06-10T08:45:17;23.40;99.90
5621;DHT22;2832;50.864;12.186;2023-06-10T08:47:46;23.30;99.90
5621;DHT22;2832;50.864;12.186;2023-06-10T08:50:18;23.40;99.90
5621;DHT22;2832;50.864;12.186;2023-06-10T08:52:53;23.30;99.90
5621;DHT22;2832;50.864;12.186;2023-06-10T08:55:29;23.40;99.90
5621;DHT22;2832;50.864;12.186;2023-06-10T08:57:58;23.40;99.90
5621;DHT22;2832;50.864;12.186;2023-06-10T09:00:31;23.50;99.90
5621;DHT22;2832;50.864;12.186;2023-06-10T09:03:05;23.40;99.90
5621;DHT22;2832;50.864;12.186;2023-06-10T09:05:35;23.40;99.90
5621;DHT22;2832;50.864;12.186;2023-06-10T09:08:06;23.40;99.90
5621;DHT22;2832;50.864;12.186;2023-06-10T09:10:37;23.50;99.90
5621;DHT22;2832;50.864;12.186;2023-06-10T09:13:06;23.50;99.90
5621;DHT22;2832;50.864;12.186;2023-06-10T09:15:38;23.40;99.90
5621;DHT22;2832;50.864;12.186;2023-06-10T09:18:09;23.50;99.90
5621;DHT22;2832;50.864;12.186;2023-06-10T09:20:38;23.40;99.90
5621;DHT22;2832;50.864;12.186;2023-06-10T09:23:07;23.40;99.90
5621;DHT22;2832;50.864;12.186;2023-06-10T09:25:36;23.40;99.90
5621;DHT22;2832;50.864;12.186;2023-06-10T09:28:05;23.40;99.90
5621;DHT22;2832;50.864;12.186;2023-06-10T09:30:47;23.40;99.90
5621;DHT22;2832;50.864;12.186;2023-06-10T09:33:16;23.40;99.90
5621;DHT22;2832;50.864;12.186;2023-06-10T09:35:48;23.40;99.90
5621;DHT22;2832;50.864;12.186;2023-06-10T09:38:20;23.40;99.90
5621;DHT22;2832;50.864;12.186;2023-06-10T09:40:50;23.50;99.90
5621;DHT22;2832;50.864;12.186;2023-06-10T09:46:19;23.50;99.90
5621;DHT22;2832;50.864;12.186;2023-06-10T09:48:48;23.50;99.90
5621;DHT22;2832;50.864;12.186;2023-06-10T09:51:16;23.50;99.90
5621;DHT22;2832;50.864;12.186;2023-06-10T09:53:50;23.60;99.90
5621;DHT22;2832;50.864;12.186;2023-06-10T09:56:19;23.50;99.90
5621;DHT22;2832;50.864;12.186;2023-06-10T09:58:53;23.50;99.90
5621;DHT22;2832;50.864;12.186;2023-06-10T10:01:22;23.50;99.90
5621;DHT22;2832;50.864;12.186;2023-06-10T10:03:51;23.50;99.90
5621;DHT22;2832;50.864;12.186;2023-06-10T10:06:20;23.50;99.90
5621;DHT22;2832;50.864;12.186;2023-06-10T10:08:50;23.60;99.90
5621;DHT22;2832;50.864;12.186;2023-06-10T10:11:23;23.60;99.90
5621;DHT22;2832;50.864;12.186;2023-06-10T10:13:53;23.70;99.90
5621;DHT22;2832;50.864;12.186;2023-06-10T10:16:30;23.70;99.90
5621;DHT22;2832;50.864;12.186;2023-06-10T10:19:04;23.70;99.90
5621;DHT22;2832;50.864;12.186;2023-06-10T10:21:38;23.70;99.90
5621;DHT22;2832;50.864;12.186;2023-06-10T10:24:17;23.70;99.90
5621;DHT22;2832;50.864;12.186;2023-06-10T10:26:51;23.80;99.90
5621;DHT22;2832;50.864;12.186;2023-06-10T10:29:24;23.80;99.90
5621;DHT22;2832;50.864;12.186;2023-06-10T10:31:55;23.90;99.90
5621;DHT22;2832;50.864;12.186;2023-06-10T10:34:30;23.90;99.90
5621;DHT22;2832;50.864;12.186;2023-06-10T10:37:03;23.90;99.90
5621;DHT22;2832;50.864;12.186;2023-06-10T10:39:33;23.90;99.90
5621;DHT22;2832;50.864;12.186;2023-06-10T10:42:02;24.00;99.90
5621;DHT22;2832;50.864;12.186;2023-06-10T10:44:32;24.00;99.90
5621;DHT22;2832;50.864;12.186;2023-06-10T10:47:07;23.90;99.90
5621;DHT22;2832;50.864;12.186;2023-06-10T10:49:37;24.00;99.90
5621;DHT22;2832;50.864;12.186;2023-06-10T10:52:10;24.00;99.90
5621;DHT22;2832;50.864;12.186;2023-06-10T10:54:48;23.90;99.90
5621;DHT22;2832;50.864;12.186;2023-06-10T10:57:18;24.00;99.90
5621;DHT22;2832;50.864;12.186;2023-06-10T10:59:58;24.00;99.90
5621;DHT22;2832;50.864;12.186;2023-06-10T11:02:35;24.00;99.90
5621;DHT22;2832;50.864;12.186;2023-06-10T11:05:05;24.00;99.90
5621;DHT22;2832;50.864;12.186;2023-06-10T11:07:35;24.10;99.90
5621;DHT22;2832;50.864;12.186;2023-06-10T11:10:07;24.10;99.90
5621;DHT22;2832;50.864;12.186;2023-06-10T11:12:50;24.10;99.90
5621;DHT22;2832;50.864;12.186;2023-06-10T11:15:21;24.10;99.90
5621;DHT22;2832;50.864;12.186;2023-06-10T11:18:13;24.20;99.90
5621;DHT22;2832;50.864;12.186;2023-06-10T11:20:58;24.20;99.90
5621;DHT22;2832;50.864;12.186;2023-06-10T11:23:41;24.20;99.90
5621;DHT22;2832;50.864;12.186;2023-06-10T11:26:16;24.20;99.90
5621;DHT22;2832;50.864;12.186;2023-06-10T11:29:07;24.20;99.90
5621;DHT22;2832;50.864;12.186;2023-06-10T11:31:44;24.20;99.90
5621;DHT22;2832;50.864;12.186;2023-06-10T11:34:14;24.20;99.90
5621;DHT22;2832;50.864;12.186;2023-06-10T11:36:43;24.30;99.80
5621;DHT22;2832;50.864;12.186;2023-06-10T11:39:12;24.30;99.80
5621;DHT22;2832;50.864;12.186;2023-06-10T11:41:45;24.30;99.70
5621;DHT22;2832;50.864;12.186;2023-06-10T11:44:18;24.40;99.50
5621;DHT22;2832;50.864;12.186;2023-06-10T11:46:48;24.30;98.60
5621;DHT22;2832;50.864;12.186;2023-06-10T11:49:24;24.40;99.20
5621;DHT22;2832;50.864;12.186;2023-06-10T11:51:51;24.50;99.00
5621;DHT22;2832;50.864;12.186;2023-06-10T11:54:20;24.50;98.70
5621;DHT22;2832;50.864;12.186;2023-06-10T11:56:48;24.60;98.90
5621;DHT22;2832;50.864;12.186;2023-06-10T11:59:18;24.60;98.70
5621;DHT22;2832;50.864;12.186;2023-06-10T12:01:55;24.60;98.60
5621;DHT22;2832;50.864;12.186;2023-06-10T12:04:32;24.50;98.40
5621;DHT22;2832;50.864;12.186;2023-06-10T12:07:04;24.60;98.80
5621;DHT22;2832;50.864;12.186;2023-06-10T12:09:38;24.60;98.10
5621;DHT22;2832;50.864;12.186;2023-06-10T12:12:10;24.50;98.30
5621;DHT22;2832;50.864;12.186;2023-06-10T12:14:52;24.50;98.40
5621;DHT22;2832;50.864;12.186;2023-06-10T12:17:35;24.60;98.50
5621;DHT22;2832;50.864;12.186;2023-06-10T12:20:24;24.60;98.90
5621;DHT22;2832;50.864;12.186;2023-06-10T12:23:08;24.70;98.90
5621;DHT22;2832;50.864;12.186;2023-06-10T12:25:49;24.70;98.90
5621;DHT22;2832;50.864;12.186;2023-06-10T12:28:21;24.70;98.30
5621;DHT22;2832;50.864;12.186;2023-06-10T12:30:50;24.70;98.20
5621;DHT22;2832;50.864;12.186;2023-06-10T12:33:19;24.70;97.80
5621;DHT22;2832;50.864;12.186;2023-06-10T12:35:55;24.70;98.00
5621;DHT22;2832;50.864;12.186;2023-06-10T12:38:25;24.70;97.20
5621;DHT22;2832;50.864;12.186;2023-06-10T12:40:54;24.70;97.30
5621;DHT22;2832;50.864;12.186;2023-06-10T12:43:25;24.80;97.90
5621;DHT22;2832;50.864;12.186;2023-06-10T12:45:54;24.80;98.00
5621;DHT22;2832;50.864;12.186;2023-06-10T12:48:24;24.90;98.80
5621;DHT22;2832;50.864;12.186;2023-06-10T12:50:57;25.00;96.60
5621;DHT22;2832;50.864;12.186;2023-06-10T12:53:33;25.00;93.50
5621;DHT22;2832;50.864;12.186;2023-06-10T12:56:01;24.80;93.00
5621;DHT22;2832;50.864;12.186;2023-06-10T12:58:29;24.80;93.60
5621;DHT22;2832;50.864;12.186;2023-06-10T13:00:57;24.90;93.40
5621;DHT22;2832;50.864;12.186;2023-06-10T13:03:27;24.90;92.60
5621;DHT22;2832;50.864;12.186;2023-06-10T13:06:03;24.80;92.30
5621;DHT22;2832;50.864;12.186;2023-06-10T13:08:40;25.00;93.00
5621;DHT22;2832;50.864;12.186;2023-06-10T13:11:17;25.00;93.30
5621;DHT22;2832;50.864;12.186;2023-06-10T13:13:50;25.00;92.70
5621;DHT22;2832;50.864;12.186;2023-06-10T13:16:18;25.00;93.10
5621;DHT22;2832;50.864;12.186;2023-06-10T13:18:46;24.90;93.20
5621;DHT22;2832;50.864;12.186;2023-06-10T13:21:15;25.00;92.60
5621;DHT22;2832;50.864;12.186;2023-06-10T13:23:46;24.90;92.50
5621;DHT22;2832;50.864;12.186;2023-06-10T13:26:15;24.80;92.40
5621;DHT22;2832;50.864;12.186;2023-06-10T13:28:46;25.00;92.60
5621;DHT22;2832;50.864;12.186;2023-06-10T13:31:15;25.20;92.50
5621;DHT22;2832;50.864;12.186;2023-06-10T13:33:44;25.10;92.70
5621;DHT22;2832;50.864;12.186;2023-06-10T13:36:22;25.20;93.00
5621;DHT22;2832;50.864;12.186;2023-06-10T13:39:01;25.00;93.70
5621;DHT22;2832;50.864;12.186;2023-06-10T13:41:29;25.10;92.80
5621;DHT22;2832;50.864;12.186;2023-06-10T13:43:57;25.10;92.80
5621;DHT22;2832;50.864;12.186;2023-06-10T13:46:25;25.40;93.10
5621;DHT22;2832;50.864;12.186;2023-06-10T13:48:55;25.60;93.30
5621;DHT22;2832;50.864;12.186;2023-06-10T13:51:37;25.60;93.10
5621;DHT22;2832;50.864;12.186;2023-06-10T13:54:21;25.40;93.10
5621;DHT22;2832;50.864;12.186;2023-06-10T13:56:56;25.20;92.50
5621;DHT22;2832;50.864;12.186;2023-06-10T13:59:28;25.20;92.10
5621;DHT22;2832;50.864;12.186;2023-06-10T14:02:02;25.30;92.10
5621;DHT22;2832;50.864;12.186;2023-06-10T14:04:39;25.30;91.30
5621;DHT22;2832;50.864;12.186;2023-06-10T14:07:11;25.40;90.70
5621;DHT22;2832;50.864;12.186;2023-06-10T14:09:40;25.30;90.70
5621;DHT22;2832;50.864;12.186;2023-06-10T14:12:09;25.40;91.20
5621;DHT22;2832;50.864;12.186;2023-06-10T14:14:37;25.50;91.70
5621;DHT22;2832;50.864;12.186;2023-06-10T14:17:10;25.50;92.20
5621;DHT22;2832;50.864;12.186;2023-06-10T14:19:43;25.40;92.00
5621;DHT22;2832;50.864;12.186;2023-06-10T14:22:39;25.10;92.30
5621;DHT22;2832;50.864;12.186;2023-06-10T14:25:23;25.00;92.50
5621;DHT22;2832;50.864;12.186;2023-06-10T14:27:50;24.90;92.50
5621;DHT22;2832;50.864;12.186;2023-06-10T14:30:25;24.80;92.80
5621;DHT22;2832;50.864;12.186;2023-06-10T14:33:05;24.90;92.90
5621;DHT22;2832;50.864;12.186;2023-06-10T14:35:39;24.90;93.00
5621;DHT22;2832;50.864;12.186;2023-06-10T14:38:10;24.90;93.00
5621;DHT22;2832;50.864;12.186;2023-06-10T14:40:45;24.90;93.10
5621;DHT22;2832;50.864;12.186;2023-06-10T14:43:24;25.00;93.30
5621;DHT22;2832;50.864;12.186;2023-06-10T14:46:03;25.00;93.10
5621;DHT22;2832;50.864;12.186;2023-06-10T14:48:34;25.00;93.20
5621;DHT22;2832;50.864;12.186;2023-06-10T14:51:05;25.20;92.90
5621;DHT22;2832;50.864;12.186;2023-06-10T14:53:37;25.40;93.20
5621;DHT22;2832;50.864;12.186;2023-06-10T14:56:06;25.40;92.60
5621;DHT22;2832;50.864;12.186;2023-06-10T14:58:34;25.20;93.00
5621;DHT22;2832;50.864;12.186;2023-06-10T15:01:02;25.40;93.10
5621;DHT22;2832;50.864;12.186;2023-06-10T15:03:30;25.40;92.80
5621;DHT22;2832;50.864;12.186;2023-06-10T15:05:58;25.40;92.90
5621;DHT22;2832;50.864;12.186;2023-06-10T15:08:35;25.50;92.70
5621;DHT22;2832;50.864;12.186;2023-06-10T15:11:12;25.40;92.40
5621;DHT22;2832;50.864;12.186;2023-06-10T15:13:40;25.40;92.10
5621;DHT22;2832;50.864;12.186;2023-06-10T15:16:07;25.30;92.50
5621;DHT22;2832;50.864;12.186;2023-06-10T15:18:36;25.40;92.60
5621;DHT22;2832;50.864;12.186;2023-06-10T15:21:04;25.30;92.70
5621;DHT22;2832;50.864;12.186;2023-06-10T15:23:37;25.30;92.60
5621;DHT22;2832;50.864;12.186;2023-06-10T15:26:07;25.30;92.20
5621;DHT22;2832;50.864;12.186;2023-06-10T15:28:38;25.40;92.00
5621;DHT22;2832;50.864;12.186;2023-06-10T15:31:06;25.40;91.60
5621;DHT22;2832;50.864;12.186;2023-06-10T15:33:36;25.60;92.20
5621;DHT22;2832;50.864;12.186;2023-06-10T15:36:08;25.60;91.50
5621;DHT22;2832;50.864;12.186;2023-06-10T15:38:38;25.40;91.90
5621;DHT22;2832;50.864;12.186;2023-06-10T15:41:08;25.50;92.20
5621;DHT22;2832;50.864;12.186;2023-06-10T15:43:36;25.50;91.90
5621;DHT22;2832;50.864;12.186;2023-06-10T15:46:07;25.60;91.90
5621;DHT22;2832;50.864;12.186;2023-06-10T15:48:35;25.60;90.40
5621;DHT22;2832;50.864;12.186;2023-06-10T15:51:03;25.60;87.50
5621;DHT22;2832;50.864;12.186;2023-06-10T15:53:34;25.70;85.60
5621;DHT22;2832;50.864;12.186;2023-06-10T15:56:06;25.70;84.10
5621;DHT22;2832;50.864;12.186;2023-06-10T15:58:35;25.70;83.80
5621;DHT22;2832;50.864;12.186;2023-06-10T16:01:03;25.70;83.00
5621;DHT22;2832;50.864;12.186;2023-06-10T16:03:33;25.70;84.60
5621;DHT22;2832;50.864;12.186;2023-06-10T16:06:04;25.70;86.20
5621;DHT22;2832;50.864;12.186;2023-06-10T16:08:35;25.80;87.60
5621;DHT22;2832;50.864;12.186;2023-06-10T16:11:03;25.80;87.40
5621;DHT22;2832;50.864;12.186;2023-06-10T16:13:31;25.70;87.30